Time;durP1;ratioP1;P1;durP2;ratioP2;P2;SDS_P1;SDS_P2;PMS_P1;PMS_P2;Temp;Humidity;BMP_temperature;BMP_pressure;BME280_temperature;BME280_humidity;BME280_pressure;Samples;Min_cycle;Max_cycle;Signal;HPM_P1;HPM_P2
2021/12/06 00:00:23;;;;;;;17.80;9.15;;;;;;;3.03;100.00;97433.19;5080914;28;20493;-92
2021/12/06 00:02:52;;;;;;;17.50;8.60;;;;;;;3.58;97.95;97465.41;5079503;28;20044;-92
2021/12/06 00:05:20;;;;;;;;;;;;;;;3.85;96.00;97461.38;5080908;28;20455;-92
2021/12/06 00:07:46;;;;;;;15.60;8.15;;;;;;;4.00;94.32;97447.88;5080013;28;19966;-94
2021/12/06 00:10:13;;;;;;;15.88;8.07;;;;;;;4.03;93.62;97439.91;5080046;28;20739;-95
2021/12/06 00:12:39;;;;;;;18.55;8.75;;;;;;;4.10;92.68;97446.78;5080706;28;20041;-94
2021/12/06 00:15:06;;;;;;;31.35;17.23;;;;;;;3.93;91.91;97450.69;5084031;28;20390;-95
2021/12/06 00:17:32;;;;;;;31.25;16.95;;;;;;;3.63;93.36;97437.28;5080289;28;20044;-93
2021/12/06 00:20:00;;;;;;;30.73;16.73;;;;;;;3.55;93.57;97461.09;5081112;28;20048;-93
2021/12/06 00:22:26;;;;;;;30.88;17.02;;;;;;;3.16;95.47;97425.97;5080154;28;20133;-93
2021/12/06 00:24:54;;;;;;;20.67;9.30;;;;;;;3.39;97.44;97446.53;5079811;28;20498;-92
2021/12/06 00:27:20;;;;;;;17.67;9.10;;;;;;;3.91;94.42;97448.94;5080826;28;20041;-92
2021/12/06 00:29:48;;;;;;;16.85;9.68;;;;;;;3.99;92.79;97429.50;5080715;28;20123;-94
2021/12/06 00:32:15;;;;;;;20.08;10.50;;;;;;;3.84;92.24;97413.16;5080536;28;20036;-94
2021/12/06 00:34:42;;;;;;;17.55;10.45;;;;;;;3.92;93.48;97462.94;5080197;28;20045;-93
2021/12/06 00:50:40;;;;;;;18.90;10.05;;;;;;;3.22;96.20;97416.19;6033194;22;3798461;-93
2021/12/06 00:53:06;;;;;;;19.98;8.93;;;;;;;3.22;96.75;97417.97;6197222;23;20035;-94
2021/12/06 00:55:33;;;;;;;20.33;10.65;;;;;;;3.31;95.37;97430.91;6196090;22;20043;-93
2021/12/06 00:58:00;;;;;;;22.63;12.18;;;;;;;3.28;94.48;97425.72;6199422;23;20039;-94
2021/12/06 01:00:30;;;;;;;23.08;14.15;;;;;;;3.12;94.52;97416.41;6197522;23;20069;-94
2021/12/06 01:02:57;;;;;;;26.67;16.63;;;;;;;2.92;96.06;97435.16;6193655;23;20017;-93
2021/12/06 01:05:24;;;;;;;31.27;16.27;;;;;;;2.66;96.78;97420.72;6193311;23;20021;-94
2021/12/06 01:10:54;;;;;;;30.23;15.75;;;;;;;2.49;98.70;97455.13;5131921;27;20380;-95
2021/12/06 01:13:24;;;;;;;25.23;16.52;;;;;;;2.13;99.06;97412.84;5115669;28;20141;-95
2021/12/06 01:15:50;;;;;;;26.00;15.52;;;;;;;2.05;99.79;97412.09;5116376;28;20427;-95
2021/12/06 01:18:18;;;;;;;23.58;13.77;;;;;;;2.00;99.92;97424.41;5116639;28;20050;-95
2021/12/06 01:41:58;;;;;;;17.90;8.98;;;;;;;2.53;99.46;97425.31;5136423;27;20379;-93
2021/12/06 01:44:28;;;;;;;18.00;9.68;;;;;;;2.54;98.39;97437.56;5135842;28;20149;-92
2021/12/06 01:46:57;;;;;;;20.98;8.98;;;;;;;2.88;96.74;97452.72;5135535;28;20103;-93
2021/12/06 01:49:30;;;;;;;19.15;9.15;;;;;;;2.77;96.47;97437.16;5137102;28;20111;-92
2021/12/06 01:52:01;;;;;;;15.23;8.60;;;;;;;2.76;96.70;97439.81;5136594;28;20039;-93
2021/12/06 01:54:28;;;;;;;19.13;8.35;;;;;;;2.66;97.60;97428.59;5137059;28;20055;-94
2021/12/06 01:56:55;;;;;;;17.50;8.30;;;;;;;2.67;97.58;97431.22;5137341;28;20044;-95
2021/12/06 01:59:24;;;;;;;14.48;7.97;;;;;;;2.61;97.77;97440.94;5136729;28;20396;-95
2021/12/06 02:01:51;;;;;;;14.27;7.45;;;;;;;2.51;98.61;97439.34;5136583;28;20039;-94
2021/12/06 02:04:18;;;;;;;13.70;7.63;;;;;;;2.40;98.39;97434.28;5137341;28;20052;-93
2021/12/06 02:06:47;;;;;;;18.02;8.13;;;;;;;2.34;99.04;97448.38;5137588;28;20074;-95
2021/12/06 02:09:17;;;;;;;15.38;8.35;;;;;;;2.23;99.36;97451.16;5136954;28;20069;-94
2021/12/06 02:11:46;;;;;;;21.45;8.10;;;;;;;2.21;98.93;97450.31;5134838;28;20077;-94
2021/12/06 02:17:22;;;;;;;16.15;8.18;;;;;;;2.43;99.89;97473.59;5141042;27;20394;-91
2021/12/06 02:20:00;;;;;;;15.38;6.53;;;;;;;2.54;98.36;97460.28;5142662;27;20047;-94
2021/12/06 02:22:33;;;;;;;13.90;6.85;;;;;;;2.85;96.23;97458.91;5155932;27;20047;-92
2021/12/06 02:24:59;;;;;;;15.40;6.85;;;;;;;3.17;93.67;97467.09;5145721;27;20039;-91
2021/12/06 02:27:29;;;;;;;14.93;6.03;;;;;;;3.21;92.96;97469.66;5156924;27;20053;-93
2021/12/06 02:29:57;;;;;;;12.25;5.93;;;;;;;3.31;90.72;97443.19;5168413;27;20043;-93
2021/12/06 02:32:25;;;;;;;9.85;5.53;;;;;;;3.33;89.99;97426.50;5137997;27;20141;-93
2021/12/06 02:34:54;;;;;;;11.27;5.53;;;;;;;3.62;88.16;97446.06;5145523;27;20039;-93
2021/12/06 02:37:23;;;;;;;20.48;5.03;;;;;;;3.62;87.01;97427.66;5150099;27;20117;-93
2021/12/06 02:39:52;;;;;;;16.47;5.57;;;;;;;3.90;86.41;97460.38;5154942;27;20039;-93
2021/12/06 02:42:18;;;;;;;11.30;4.70;;;;;;;3.75;86.54;97451.94;5155375;27;20096;-93
2021/12/06 02:44:45;;;;;;;12.52;5.47;;;;;;;3.79;87.15;97472.84;5155417;27;20114;-95
2021/12/06 02:47:12;;;;;;;9.20;4.47;;;;;;;3.68;87.28;97464.34;5156517;27;20452;-93
2021/12/06 02:49:46;;;;;;;11.65;5.20;;;;;;;3.67;87.05;97460.84;5155838;27;20397;-92
2021/12/06 02:52:13;;;;;;;13.10;5.43;;;;;;;3.54;86.57;97448.84;5147764;27;20078;-93
2021/12/06 02:54:40;;;;;;;11.27;5.85;;;;;;;3.61;85.68;97445.19;5155366;27;20512;-96
2021/12/06 03:00:10;;;;;;;11.75;5.15;;;;;;;3.61;84.98;97428.56;5095915;27;20362;-93
2021/12/06 03:02:39;;;;;;;13.00;4.47;;;;;;;3.57;85.33;97445.28;5095858;28;20464;-95
2021/12/06 03:05:07;;;;;;;11.53;5.73;;;;;;;3.65;84.77;97453.91;5094325;28;20036;-94
2021/12/06 03:07:36;;;;;;;9.77;5.68;;;;;;;3.68;84.62;97449.41;5095463;28;20097;-93
2021/12/06 03:10:07;;;;;;;15.30;5.88;;;;;;;3.56;84.61;97433.06;5093355;28;20481;-93
2021/12/06 03:12:35;;;;;;;13.07;5.10;;;;;;;3.66;84.00;97450.34;5094773;28;20485;-93
2021/12/06 03:15:04;;;;;;;12.75;5.53;;;;;;;3.66;84.90;97460.88;5095377;28;20051;-92
2021/12/06 03:17:34;;;;;;;13.77;7.43;;;;;;;3.39;84.72;97423.75;5094861;28;20052;-92
2021/12/06 03:20:03;;;;;;;11.80;6.13;;;;;;;3.40;85.56;97441.22;5095637;28;20086;-93
2021/12/06 03:22:29;;;;;;;17.73;6.85;;;;;;;3.19;85.86;97423.25;5094138;28;20041;-92
2021/12/06 03:24:55;;;;;;;19.00;7.32;;;;;;;3.19;86.41;97450.41;5094551;28;20041;-93
2021/12/06 03:27:21;;;;;;;22.02;8.20;;;;;;;2.93;86.96;97431.63;5094253;28;20036;-93
2021/12/06 03:29:48;;;;;;;19.35;7.47;;;;;;;2.85;87.58;97431.78;5094705;28;20037;-93
2021/12/06 03:32:17;;;;;;;17.23;7.43;;;;;;;2.83;88.67;97459.81;5092547;28;20059;-92
2021/12/06 03:34:45;;;;;;;19.60;7.28;;;;;;;2.88;88.79;97474.63;5094373;28;20055;-93
2021/12/06 03:37:11;;;;;;;16.27;6.45;;;;;;;2.83;88.68;97457.19;5094063;28;20037;-93
2021/12/06 03:39:41;;;;;;;18.42;6.68;;;;;;;2.77;88.27;97441.53;5094792;28;20522;-93
2021/12/06 03:42:10;;;;;;;17.92;7.45;;;;;;;2.79;88.23;97430.13;5093561;28;20071;-93
2021/12/06 03:44:36;;;;;;;12.63;7.03;;;;;;;2.97;87.30;97455.22;5093959;28;20051;-92
2021/12/06 03:47:07;;;;;;;12.55;6.70;;;;;;;3.00;88.17;97460.38;5094898;28;20051;-93
2021/12/06 03:49:34;;;;;;;14.75;6.78;;;;;;;2.89;88.76;97459.72;5095462;28;20130;-94
2021/12/06 03:52:04;;;;;;;16.67;6.78;;;;;;;2.75;88.38;97443.31;5095621;28;20044;-95
2021/12/06 03:54:30;;;;;;;17.40;9.07;;;;;;;2.86;88.22;97472.88;5081750;28;20048;-92
2021/12/06 03:56:57;;;;;;;18.27;7.25;;;;;;;2.79;88.40;97468.63;5095568;28;20040;-94
2021/12/06 03:59:24;;;;;;;17.83;6.97;;;;;;;2.76;88.35;97477.44;5094670;28;20051;-95
2021/12/06 04:01:51;;;;;;;17.30;7.50;;;;;;;2.57;89.01;97470.75;5096274;28;20052;-95
2021/12/06 04:04:18;;;;;;;14.68;7.13;;;;;;;2.52;90.95;97478.72;5096028;28;20063;-95
2021/12/06 04:06:46;;;;;;;18.52;8.43;;;;;;;2.38;90.41;97455.28;5093495;28;20049;-94
2021/12/06 04:09:14;;;;;;;17.38;7.60;;;;;;;2.35;90.65;97468.47;5094048;28;20048;-95
2021/12/06 04:11:40;;;;;;;14.65;7.97;;;;;;;2.33;91.24;97470.25;5081252;28;20106;-93
2021/12/06 04:14:07;;;;;;;16.70;8.52;;;;;;;2.16;91.17;97440.78;5083017;28;20040;-94
2021/12/06 04:16:34;;;;;;;13.23;8.05;;;;;;;2.42;90.04;97467.47;5079849;28;20055;-92
2021/12/06 04:19:00;;;;;;;18.63;8.43;;;;;;;2.33;90.16;97451.88;5080289;28;20070;-93
2021/12/06 04:21:26;;;;;;;21.63;9.70;;;;;;;2.36;89.82;97453.59;5080978;28;20045;-92
2021/12/06 04:23:53;;;;;;;16.73;8.73;;;;;;;2.41;89.19;97460.50;5086029;28;20120;-94
2021/12/06 04:26:25;;;;;;;17.95;9.52;;;;;;;2.52;88.97;97478.72;5087603;28;20099;-92
2021/12/06 04:28:59;;;;;;;22.10;9.98;;;;;;;2.32;89.32;97454.53;5088805;28;20044;-94
2021/12/06 04:31:26;;;;;;;18.70;8.43;;;;;;;2.46;89.36;97487.53;5085754;28;20494;-93
2021/12/06 04:33:52;;;;;;;15.77;7.57;;;;;;;2.24;89.08;97447.66;5086886;28;20044;-92
2021/12/06 04:36:18;;;;;;;20.33;8.10;;;;;;;2.41;88.42;97463.13;5085847;28;20056;-93
2021/12/06 04:38:45;;;;;;;14.95;8.05;;;;;;;2.60;86.04;97449.69;5086896;28;20057;-92
2021/12/06 04:41:11;;;;;;;17.48;7.72;;;;;;;2.79;84.20;97447.63;5085351;28;20102;-93
2021/12/06 04:43:38;;;;;;;15.07;7.18;;;;;;;2.84;84.46;97470.31;5083311;28;20071;-89
2021/12/06 04:46:06;;;;;;;15.48;7.68;;;;;;;2.80;84.99;97480.88;5083469;28;20032;-93
2021/12/06 04:48:32;;;;;;;16.77;8.13;;;;;;;2.50;85.57;97454.25;5086222;28;20162;-93
2021/12/06 04:50:58;;;;;;;20.73;8.27;;;;;;;2.47;85.84;97463.03;5087531;28;20087;-93
2021/12/06 04:53:27;;;;;;;16.13;8.25;;;;;;;2.61;85.86;97496.06;5085769;28;20048;-92
2021/12/06 04:56:00;;;;;;;15.38;7.32;;;;;;;2.41;85.79;97478.00;5088047;28;20051;-94
2021/12/06 04:58:30;;;;;;;24.25;8.20;;;;;;;2.60;85.10;97494.31;5064761;28;20045;-92
2021/12/06 05:01:04;;;;;;;18.02;8.18;;;;;;;2.56;85.78;97509.25;5060792;28;20040;-94
2021/12/06 05:03:30;;;;;;;13.20;6.95;;;;;;;2.51;84.15;97489.22;5066785;28;20045;-93
2021/12/06 05:06:01;;;;;;;18.20;6.93;;;;;;;2.56;83.85;97485.66;5067773;28;20049;-93
2021/12/06 05:08:32;;;;;;;13.50;7.22;;;;;;;2.82;82.69;97521.97;5065937;28;20482;-92
2021/12/06 05:11:00;;;;;;;13.70;6.45;;;;;;;2.82;82.60;97519.34;5064987;28;20048;-92
2021/12/06 05:13:31;;;;;;;13.30;6.93;;;;;;;2.98;81.76;97527.81;5066086;28;20375;-93
2021/12/06 05:16:00;;;;;;;12.70;6.18;;;;;;;2.79;81.16;97487.00;5067449;28;20049;-92
2021/12/06 05:18:26;;;;;;;;;;;;;;;3.05;80.81;97524.19;5068737;28;20047;-94
2021/12/06 05:20:55;;;;;;;13.73;6.15;;;;;;;2.89;80.26;97491.22;5068085;28;19964;-94
2021/12/06 05:23:21;;;;;;;15.07;5.80;;;;;;;2.89;79.84;97480.72;5068938;28;20045;-92
2021/12/06 05:25:47;;;;;;;12.77;5.63;;;;;;;2.96;79.71;97505.97;5065534;28;20052;-94
2021/12/06 05:28:13;;;;;;;10.52;5.50;;;;;;;2.94;78.69;97497.25;5059449;28;20041;-93
2021/12/06 05:30:42;;;;;;;11.40;5.38;;;;;;;3.00;78.34;97497.16;5060435;28;20041;-94
2021/12/06 05:36:43;;;;;;;12.48;5.72;;;;;;;3.28;76.73;97502.78;5124780;27;20373;-92
2021/12/06 05:39:09;;;;;;;12.70;5.07;;;;;;;3.36;76.79;97525.41;5124020;28;20055;-92
2021/12/06 05:41:35;;;;;;;9.52;4.93;;;;;;;3.26;76.24;97501.09;5116975;28;20048;-94
2021/12/06 05:44:03;;;;;;;9.60;4.88;;;;;;;3.28;75.89;97512.44;5106487;28;20044;-92
2021/12/06 05:46:29;;;;;;;10.63;4.85;;;;;;;3.16;76.63;97496.88;5112940;28;20051;-92
2021/12/06 05:48:56;;;;;;;12.30;5.57;;;;;;;3.09;76.75;97502.22;5115490;28;20052;-94
2021/12/06 05:51:23;;;;;;;10.00;5.95;;;;;;;2.99;77.39;97505.03;5105209;28;20083;-94
2021/12/06 05:53:50;;;;;;;12.07;7.15;;;;;;;2.81;80.03;97540.38;5122406;28;20102;-92
2021/12/06 05:56:16;;;;;;;12.93;6.18;;;;;;;2.58;80.44;97509.22;5118423;28;20103;-95
2021/12/06 05:58:42;;;;;;;15.05;7.78;;;;;;;2.65;81.76;97558.97;5108608;28;20066;-93
2021/12/06 06:01:10;;;;;;;15.30;7.13;;;;;;;2.49;82.52;97551.34;5109593;28;20074;-94
2021/12/06 06:03:36;;;;;;;10.98;6.50;;;;;;;2.44;82.72;97562.78;5123784;28;20048;-95
2021/12/06 06:06:02;;;;;;;15.55;7.13;;;;;;;2.23;83.33;97535.09;5127484;28;20130;-94
2021/12/06 06:08:28;;;;;;;18.17;8.43;;;;;;;2.24;83.91;97559.56;5124990;28;20044;-94
2021/12/06 06:10:58;;;;;;;16.67;7.35;;;;;;;2.37;83.37;97576.00;5127382;28;20040;-93
2021/12/06 06:13:24;;;;;;;;;;;;;;;2.36;83.43;97571.63;5110566;28;20054;-91
2021/12/06 06:15:51;;;;;;;16.13;8.45;;;;;;;2.29;83.55;97576.09;5117619;28;19920;-93
2021/12/06 06:18:17;;;;;;;14.70;7.47;;;;;;;2.28;83.16;97560.38;5106695;28;20076;-92
2021/12/06 06:20:46;;;;;;;15.00;6.93;;;;;;;2.44;81.87;97575.88;5118469;28;20078;-94
2021/12/06 06:23:13;;;;;;;15.98;7.15;;;;;;;2.46;81.48;97562.75;5103555;28;20043;-93
2021/12/06 06:25:39;;;;;;;16.63;6.88;;;;;;;2.53;80.97;97564.41;5098974;28;20051;-93
2021/12/06 06:28:15;;;;;;;13.98;7.65;;;;;;;2.58;81.18;97578.34;5105416;28;20044;-92
2021/12/06 06:30:41;;;;;;;16.02;6.95;;;;;;;2.51;81.21;97560.91;5097446;28;20110;-94
2021/12/06 06:33:08;;;;;;;14.32;7.80;;;;;;;2.49;81.02;97577.59;5092881;28;20584;-93
2021/12/06 06:35:34;;;;;;;12.45;6.90;;;;;;;2.58;81.14;97578.34;5091843;28;20052;-93
2021/12/06 06:38:00;;;;;;;16.42;7.15;;;;;;;2.54;81.22;97568.78;5072367;28;20041;-92
2021/12/06 06:40:28;;;;;;;13.48;6.95;;;;;;;2.73;80.04;97598.22;5073389;28;20515;-93
2021/12/06 06:42:54;;;;;;;17.23;8.02;;;;;;;2.71;79.61;97579.03;5082850;28;20041;-92
2021/12/06 06:45:23;;;;;;;16.73;8.40;;;;;;;2.89;78.96;97583.13;5104178;28;20085;-94
2021/12/06 06:47:50;;;;;;;17.17;7.45;;;;;;;3.04;78.48;97593.38;5096736;28;20044;-93
2021/12/06 06:50:17;;;;;;;14.43;6.88;;;;;;;3.24;77.71;97605.31;5078804;28;20040;-94
2021/12/06 06:52:43;;;;;;;14.55;6.38;;;;;;;3.15;77.57;97589.72;5079063;28;20041;-94
2021/12/06 06:55:10;;;;;;;11.95;6.45;;;;;;;3.31;77.42;97630.59;5078453;28;20040;-93
2021/12/06 06:57:36;;;;;;;13.95;6.97;;;;;;;3.11;77.65;97598.53;5078929;28;20072;-92
2021/12/06 07:00:04;;;;;;;14.23;7.10;;;;;;;3.22;77.56;97615.00;5076756;28;20536;-92
2021/12/06 07:02:32;;;;;;;15.02;7.40;;;;;;;3.28;77.62;97636.78;5080148;28;20920;-94
2021/12/06 07:05:00;;;;;;;14.52;6.82;;;;;;;3.27;77.83;97634.16;5078501;28;20547;-92
2021/12/06 07:07:26;;;;;;;13.13;6.47;;;;;;;3.38;77.87;97650.63;5077593;28;20083;-92
2021/12/06 07:09:52;;;;;;;16.23;6.95;;;;;;;3.28;78.23;97638.53;5083713;28;20047;-92
2021/12/06 07:12:19;;;;;;;15.18;7.70;;;;;;;3.27;79.80;97655.19;5098356;28;20036;-94
2021/12/06 07:14:47;;;;;;;15.43;7.88;;;;;;;3.01;80.04;97624.06;5090184;28;20079;-92
2021/12/06 07:17:14;;;;;;;15.27;8.02;;;;;;;3.03;80.89;97645.91;5097121;28;20055;-93
2021/12/06 07:19:42;;;;;;;19.02;8.32;;;;;;;3.08;80.29;97641.50;5086307;28;20041;-92
2021/12/06 07:22:08;;;;;;;15.82;8.02;;;;;;;3.06;81.07;97649.38;5091397;28;20145;-90
2021/12/06 07:24:34;;;;;;;17.52;9.35;;;;;;;2.87;80.68;97629.53;5077289;28;20564;-93
2021/12/06 07:27:00;;;;;;;19.20;9.30;;;;;;;3.03;80.98;97664.31;5082770;28;20478;-93
2021/12/06 07:29:26;;;;;;;16.17;8.23;;;;;;;2.86;80.61;97618.19;5089469;28;20044;-91
2021/12/06 07:31:53;;;;;;;16.80;7.60;;;;;;;3.12;79.70;97647.53;5083674;28;20039;-90
2021/12/06 07:34:19;;;;;;;14.15;7.40;;;;;;;3.23;80.00;97658.75;5076792;28;20460;-91
2021/12/06 07:36:48;;;;;;;14.77;7.50;;;;;;;3.26;79.16;97650.84;5077158;28;20032;-93
2021/12/06 07:39:14;;;;;;;;;;;;;;;3.47;79.36;97670.63;5081359;28;20127;-93
2021/12/06 07:41:40;;;;;;;12.40;6.05;;;;;;;3.46;77.89;97664.50;5079662;28;20327;-91
2021/12/06 07:44:05;;;;;;;19.65;9.57;;;;;;;3.59;77.84;97670.41;5093038;28;20085;-93
2021/12/06 07:46:31;;;;;;;19.60;9.52;;;;;;;3.55;78.09;97657.38;5089478;28;20052;-94
2021/12/06 07:48:57;;;;;;;23.98;15.18;;;;;;;3.46;78.54;97627.72;5078493;28;20040;-94
2021/12/06 07:51:25;;;;;;;16.05;7.10;;;;;;;3.65;77.44;97643.19;5077469;28;20517;-94
2021/12/06 07:53:54;;;;;;;15.32;7.20;;;;;;;3.87;78.46;97662.06;5077508;28;20048;-93
2021/12/06 07:56:20;;;;;;;15.13;6.28;;;;;;;3.74;76.74;97639.50;5077656;28;20498;-94
2021/12/06 07:58:46;;;;;;;12.77;5.93;;;;;;;3.80;76.97;97636.78;5078134;28;20076;-95
2021/12/06 08:01:13;;;;;;;16.27;7.88;;;;;;;3.85;77.00;97635.78;5080677;28;20041;-93
2021/12/06 08:03:41;;;;;;;10.68;6.00;;;;;;;3.88;75.88;97633.13;5080178;28;20071;-95
2021/12/06 08:06:09;;;;;;;11.77;5.55;;;;;;;3.98;75.76;97627.66;5095502;28;20040;-94
2021/12/06 08:08:38;;;;;;;10.10;4.90;;;;;;;4.09;75.19;97639.72;5086476;28;20398;-93
2021/12/06 08:11:10;;;;;;;9.25;5.03;;;;;;;4.28;74.33;97660.41;5079168;28;20056;-94
2021/12/06 08:13:38;;;;;;;23.65;12.80;;;;;;;4.18;74.29;97641.28;5079455;28;20040;-92
2021/12/06 08:16:07;;;;;;;10.55;5.28;;;;;;;4.19;74.40;97647.44;5084150;28;20044;-92
2021/12/06 08:18:32;;;;;;;11.45;5.63;;;;;;;4.22;74.67;97679.81;5096496;28;20457;-93
2021/12/06 08:21:00;;;;;;;9.25;4.85;;;;;;;4.14;74.84;97679.06;5092597;28;20028;-95
2021/12/06 08:23:26;;;;;;;8.82;5.00;;;;;;;4.05;74.60;97664.34;5097393;28;20605;-92
2021/12/06 08:25:52;;;;;;;10.73;6.15;;;;;;;4.08;74.49;97679.22;5087150;28;20116;-90
2021/12/06 08:28:23;;;;;;;8.55;4.75;;;;;;;4.17;74.46;97697.47;5077421;28;20075;-92
2021/12/06 08:30:50;;;;;;;10.95;5.20;;;;;;;4.16;74.71;97686.94;5075626;28;20071;-94
2021/12/06 08:33:16;;;;;;;11.57;5.43;;;;;;;4.18;74.59;97679.91;5080813;28;20102;-92
2021/12/06 08:35:46;;;;;;;8.68;5.10;;;;;;;4.31;73.83;97698.03;5095903;28;20052;-93
2021/12/06 08:38:15;;;;;;;8.68;4.97;;;;;;;4.31;74.30;97703.31;5080850;28;20079;-93
2021/12/06 08:40:42;;;;;;;9.88;5.57;;;;;;;4.45;73.85;97700.44;5084186;28;20040;-93
2021/12/06 08:43:09;;;;;;;10.32;5.78;;;;;;;4.23;73.58;97665.78;5081279;28;20051;-92
2021/12/06 08:45:36;;;;;;;8.63;5.53;;;;;;;4.41;73.05;97692.63;5094409;28;20473;-91
2021/12/06 08:48:03;;;;;;;13.88;5.88;;;;;;;4.46;73.33;97696.03;5083028;28;20543;-92
2021/12/06 08:50:30;;;;;;;11.30;6.32;;;;;;;4.48;74.30;97700.34;5088325;28;20052;-93
2021/12/06 08:52:56;;;;;;;9.95;4.97;;;;;;;4.39;72.84;97681.25;5080344;28;20032;-93
2021/12/06 08:55:24;;;;;;;14.55;8.40;;;;;;;4.39;73.25;97682.13;5082227;28;20045;-91
2021/12/06 08:57:51;;;;;;;19.85;10.27;;;;;;;4.46;72.89;97688.97;5088070;28;20060;-92
2021/12/06 09:00:20;;;;;;;10.18;5.65;;;;;;;4.50;72.15;97693.28;5080646;28;20142;-92
2021/12/06 09:02:47;;;;;;;;;;;;;;;4.61;72.57;97716.78;5075279;28;20136;-93
2021/12/06 09:05:13;;;;;;;8.82;4.32;;;;;;;4.59;72.12;97700.13;5078263;28;19974;-92
2021/12/06 09:07:39;;;;;;;7.65;4.63;;;;;;;4.80;71.55;97722.53;5076945;28;20044;-93
2021/12/06 09:10:08;;;;;;;18.52;7.88;;;;;;;4.78;71.84;97707.66;5076108;28;20040;-94
2021/12/06 09:12:33;;;;;;;15.27;8.47;;;;;;;4.79;72.03;97704.13;5083888;28;20035;-94
2021/12/06 09:15:05;;;;;;;7.72;4.82;;;;;;;4.82;71.99;97706.72;5077519;28;20046;-93
2021/12/06 09:17:31;;;;;;;11.38;4.47;;;;;;;4.98;70.78;97713.38;5092898;28;20045;-94
2021/12/06 09:19:58;;;;;;;10.38;5.82;;;;;;;5.25;71.87;97734.75;5074645;28;20522;-93
2021/12/06 09:22:25;;;;;;;11.80;6.85;;;;;;;5.34;70.88;97732.78;5087945;28;20048;-92
2021/12/06 09:24:51;;;;;;;8.40;4.93;;;;;;;5.47;70.30;97737.78;5080608;28;20037;-93
2021/12/06 09:27:18;;;;;;;10.88;5.82;;;;;;;5.57;70.63;97741.91;5075706;28;20041;-94
2021/12/06 09:29:46;;;;;;;9.18;5.25;;;;;;;5.53;68.79;97706.84;5076289;28;20498;-93
2021/12/06 09:32:13;;;;;;;7.47;4.55;;;;;;;5.88;68.09;97749.97;5075895;28;20040;-94
2021/12/06 09:34:43;;;;;;;8.68;4.88;;;;;;;5.92;69.27;97734.91;5086257;28;20147;-94
2021/12/06 09:37:12;;;;;;;10.50;5.70;;;;;;;5.96;69.26;97734.84;5096430;28;20046;-94
2021/12/06 09:39:39;;;;;;;;;;;;;;;6.02;69.11;97751.41;5095490;28;20044;-91
2021/12/06 09:42:07;;;;;;;8.57;4.90;;;;;;;6.03;68.18;97739.94;5078008;28;19924;-94
2021/12/06 09:44:33;;;;;;;7.57;4.38;;;;;;;6.17;67.28;97730.78;5076070;28;20402;-94
2021/12/06 09:47:00;;;;;;;7.25;4.10;;;;;;;6.24;67.60;97709.50;5075605;28;20040;-93
2021/12/06 09:49:26;;;;;;;6.88;3.90;;;;;;;6.33;68.24;97723.34;5077658;28;20087;-95
2021/12/06 09:51:56;;;;;;;7.13;3.95;;;;;;;6.55;66.59;97731.53;5076066;28;20198;-90
2021/12/06 09:54:27;;;;;;;7.10;4.72;;;;;;;6.36;66.76;97712.66;5077055;28;20056;-91
2021/12/06 09:56:54;;;;;;;5.88;3.70;;;;;;;6.66;66.41;97725.94;5076573;28;20056;-92
2021/12/06 09:59:24;;;;;;;6.03;4.07;;;;;;;6.64;66.01;97717.19;5075339;28;20482;-91
2021/12/06 10:01:50;;;;;;;;;;;;;;;6.57;65.65;97735.00;5082357;28;20052;-94
2021/12/06 10:04:17;;;;;;;6.00;3.65;;;;;;;6.53;65.98;97712.22;5080839;28;20020;-90
2021/12/06 10:06:45;;;;;;;4.93;3.42;;;;;;;6.62;65.75;97711.09;5081229;28;20045;-92
2021/12/06 10:09:11;;;;;;;10.10;4.72;;;;;;;6.69;64.64;97698.56;5079056;28;20047;-93
2021/12/06 10:11:40;;;;;;;7.22;3.63;;;;;;;6.81;64.27;97702.63;5081149;28;20383;-91
2021/12/06 10:14:07;;;;;;;7.18;4.03;;;;;;;6.91;65.30;97706.75;5079714;28;20040;-92
2021/12/06 10:16:34;;;;;;;7.78;4.05;;;;;;;6.83;63.73;97712.25;5081105;28;20047;-91
2021/12/06 10:19:00;;;;;;;5.63;3.78;;;;;;;6.87;64.32;97721.81;5080150;28;20040;-92
2021/12/06 10:21:27;;;;;;;7.43;4.40;;;;;;;6.89;65.42;97708.56;5079585;28;20040;-92
2021/12/06 10:23:53;;;;;;;7.05;3.92;;;;;;;6.83;65.00;97695.53;5093822;28;20040;-91
2021/12/06 10:26:23;;;;;;;6.50;4.13;;;;;;;6.73;65.71;97700.22;5084939;28;20040;-91
2021/12/06 10:28:55;;;;;;;9.40;5.90;;;;;;;6.85;66.02;97717.47;5084026;28;20032;-90
2021/12/06 10:31:22;;;;;;;7.60;3.97;;;;;;;6.65;65.90;97679.28;5015623;28;20450;-90
2021/12/06 10:33:48;;;;;;;7.75;4.43;;;;;;;6.73;66.20;97681.72;5047028;28;20402;-93
2021/12/06 10:36:17;;;;;;;7.13;3.92;;;;;;;6.84;66.48;97694.63;5048542;28;20044;-91
2021/12/06 10:38:47;;;;;;;5.80;3.83;;;;;;;6.90;64.27;97673.31;5040235;28;20446;-93
2021/12/06 10:41:15;;;;;;;6.15;3.92;;;;;;;7.07;66.56;97693.91;5041660;28;20103;-90
2021/12/06 10:43:52;;;;;;;7.65;4.90;;;;;;;6.76;62.89;97661.34;5040544;28;20103;-91
2021/12/06 10:46:18;;;;;;;9.70;5.53;;;;;;;6.86;63.52;97691.03;5039975;28;20030;-91
2021/12/06 10:48:46;;;;;;;7.45;4.18;;;;;;;6.96;63.95;97679.28;5041164;28;20404;-90
2021/12/06 10:51:16;;;;;;;6.77;4.20;;;;;;;6.83;63.13;97659.41;5041800;28;20048;-91
2021/12/06 10:53:47;;;;;;;6.82;3.80;;;;;;;7.06;62.44;97677.19;5046540;28;20049;-91
2021/12/06 10:56:18;;;;;;;7.43;4.10;;;;;;;7.11;63.97;97685.88;5047068;28;20044;-92
2021/12/06 10:58:45;;;;;;;6.95;3.78;;;;;;;7.03;62.72;97672.03;5038150;28;20049;-92
2021/12/06 11:01:15;;;;;;;6.25;3.70;;;;;;;7.12;61.71;97671.72;5040886;28;20048;-92
2021/12/06 11:03:45;;;;;;;8.48;4.20;;;;;;;7.24;61.96;97678.41;5029363;28;20066;-92
2021/12/06 11:06:16;;;;;;;7.13;4.15;;;;;;;7.15;61.68;97660.19;5046073;28;20049;-92
2021/12/06 11:08:43;;;;;;;6.97;4.07;;;;;;;7.10;61.40;97655.06;5040238;28;20055;-92
2021/12/06 11:11:11;;;;;;;9.20;4.93;;;;;;;7.31;62.40;97687.91;5037749;28;20091;-90
2021/12/06 11:13:39;;;;;;;8.68;5.25;;;;;;;7.30;62.42;97675.56;5043959;28;20049;-92
2021/12/06 11:16:09;;;;;;;9.95;4.60;;;;;;;7.22;61.00;97671.44;5042169;28;20048;-90
2021/12/06 11:18:44;;;;;;;6.85;4.40;;;;;;;7.29;61.95;97679.16;5041421;28;20068;-91
2021/12/06 11:21:28;;;;;;;8.48;4.47;;;;;;;7.51;62.10;97699.63;5039851;28;20623;-92
2021/12/06 11:24:12;;;;;;;9.35;4.32;;;;;;;7.57;59.79;97689.72;5047260;28;20045;-92
2021/12/06 11:26:41;;;;;;;11.70;6.45;;;;;;;7.58;60.54;97687.91;5033359;28;20037;-90
2021/12/06 11:29:11;;;;;;;9.27;5.50;;;;;;;7.70;60.20;97679.59;5048022;28;20495;-93
2021/12/06 11:31:38;;;;;;;11.90;5.22;;;;;;;7.95;60.42;97694.66;5041410;28;20037;-91
2021/12/06 11:34:07;;;;;;;20.00;13.25;;;;;;;7.80;59.24;97667.75;5042621;28;20075;-92
2021/12/06 11:36:34;;;;;;;9.77;5.10;;;;;;;8.05;58.39;97697.84;5026969;28;20041;-93
2021/12/06 11:39:03;;;;;;;10.13;5.72;;;;;;;8.12;58.84;97704.66;5039757;28;20116;-92
2021/12/06 11:41:30;;;;;;;9.30;5.05;;;;;;;8.00;58.99;97690.94;5037558;28;20053;-90
2021/12/06 11:43:57;;;;;;;9.77;5.40;;;;;;;7.92;59.62;97685.03;5037562;28;20045;-90
2021/12/06 11:46:31;;;;;;;9.00;5.35;;;;;;;7.57;60.92;97699.44;5038025;28;20041;-92
2021/12/06 11:48:57;;;;;;;8.85;5.38;;;;;;;7.42;61.41;97684.91;5046610;28;20047;-92
2021/12/06 11:51:26;;;;;;;8.32;5.03;;;;;;;7.33;61.06;97679.88;5047844;28;20048;-91
2021/12/06 11:53:55;;;;;;;11.32;4.95;;;;;;;7.47;62.09;97692.69;5040092;28;20065;-92
2021/12/06 11:56:25;;;;;;;8.90;4.83;;;;;;;7.33;61.64;97664.91;5038442;28;20128;-91
2021/12/06 11:58:53;;;;;;;8.77;5.10;;;;;;;7.39;61.03;97669.13;5041510;28;20033;-89
2021/12/06 12:01:24;;;;;;;8.55;5.32;;;;;;;7.48;61.50;97702.34;5041863;28;20120;-92
2021/12/06 12:03:55;;;;;;;7.10;3.97;;;;;;;7.56;61.03;97693.25;5046517;28;20044;-91
2021/12/06 12:06:28;;;;;;;11.98;6.60;;;;;;;7.65;61.68;97709.75;5041600;28;20515;-89
2021/12/06 12:09:05;;;;;;;9.50;5.28;;;;;;;7.56;61.45;97685.31;5045447;28;20524;-92
2021/12/06 12:11:31;;;;;;;9.25;5.07;;;;;;;7.60;61.54;97684.31;5030432;28;20116;-90
2021/12/06 12:13:58;;;;;;;7.15;4.40;;;;;;;7.68;61.75;97709.66;5040132;28;20036;-91
2021/12/06 12:16:24;;;;;;;8.20;5.43;;;;;;;7.41;61.43;97672.59;5035216;28;20029;-91
2021/12/06 12:18:50;;;;;;;8.07;4.80;;;;;;;7.60;62.26;97680.81;5041654;28;20072;-92
2021/12/06 12:21:17;;;;;;;9.52;5.18;;;;;;;7.65;60.90;97659.47;5048387;28;20095;-92
2021/12/06 12:23:44;;;;;;;10.98;6.40;;;;;;;7.76;60.67;97686.44;5042792;28;20049;-90
2021/12/06 12:26:14;;;;;;;7.07;4.43;;;;;;;7.72;61.21;97688.34;5038326;28;20152;-92